Terminal Aerodrome Forecast
Issued by NWS

Home | Current Version | Previous Version | Text Only | Print | Product List | Glossary On
Versions: 1 2 3 4 5 6 7 8 9 10 11 12 13 14 15 16 17
649
FTUS46 KHNX 090520
TAFMCE
TAF
KMCE 090520Z 0906/1006 13008KT 6SM BR OVC050
     FM091200 13008KT 3SM BR OVC030
     FM091800 14008KT 4SM BR VCSH BKN015 OVC050=

USA.gov is the U.S. government's official web portal to all federal, state and local government web resources and services.